Bastrop, LA

1:49 PM CST on January 20, 2018 (GMT -0600)
Bastrop

Weather History for KBQP - May, 2014

Change the Weather History Date:

Sunday, May 4, 2014

  Actual Average (KMLU) Record (KMLU)
Temperature  
Mean Temperature 70 °F -  
Max Temperature 88 °F 79 °F 92 °F (2012)
Min Temperature 53 °F 56 °F 39 °F (2013)
Cooling Degree Days 6    
Growing Degree Days 20 (Base 50)    
Moisture  
Dew Point 51 °F    
Average Humidity 54    
Maximum Humidity 86    
Minimum Humidity 23    
Precipitation  
Precipitation 0.00 in - - ()
Sea Level Pressure  
Sea Level Pressure 30.06 in    
Wind  
Wind Speed 3 mph (SW)    
Max Wind Speed 10 mph    
Max Gust Speed 16 mph    
Visibility 10 miles    
Events      
Averages and records for this station are not official NWS values.
T = Trace of Precipitation, MM = Missing Value Source: NWS Daily Summary

Daily Weather History Graph

Daily Weather History Graph

Search for Another Location

Airport or City:

Trip Planner

Search our weather history database for the weather conditions in past years. The results will help you decide how hot, cold, wet, or windy it might be!

Date:

Astronomy

May. 04, 2014 Rise Set
Actual Time 6:17 AM CDT 7:51 PM CDT
Civil Twilight 5:51 AM CDT 8:17 PM CDT
Nautical Twilight 5:19 AM CDT 8:49 PM CDT
Astronomical Twilight 4:46 AM CDT 9:23 PM CDT
Moon 10:43 AM CDT (5/4) No Moon Set
Length of Visible Light 14h 26m
Length of Day
13h 33m
Waxing Crescent, 28% of the Moon is Illuminated
May 4
Waxing Crescent
May 6
First Quarter
May 14
Full
May 21
Last Quarter
May 28
New

Hourly Weather History & Observations

Time (CDT) Temp. Dew Point Humidity Pressure Visibility Wind Dir Wind Speed Gust Speed Precip Events Conditions
12:15 AM 55.6 °F 50.0 °F 81% 30.07 in 10.0 mi Calm Calm - N/A   Clear
12:35 AM 56.3 °F 49.1 °F 77% 30.07 in 10.0 mi Calm Calm - N/A   Clear
12:55 AM 55.8 °F 48.7 °F 77% 30.07 in 10.0 mi Calm Calm - N/A   Clear
1:15 AM 56.1 °F 48.7 °F 76% 30.07 in 10.0 mi Calm Calm - N/A   Clear
1:35 AM 55.4 °F 49.1 °F 79% 30.07 in 10.0 mi Calm Calm - N/A   Clear
1:55 AM 55.9 °F 49.8 °F 80% 30.07 in 10.0 mi Calm Calm - N/A   Clear
2:15 AM 55.8 °F 50.0 °F 81% 30.06 in 10.0 mi Calm Calm - N/A   Clear
2:35 AM 53.6 °F 49.5 °F 86% 30.06 in 10.0 mi Calm Calm - N/A   Clear
2:55 AM 53.6 °F 49.3 °F 85% 30.06 in 10.0 mi Calm Calm - N/A   Clear
3:15 AM 54.0 °F 49.1 °F 84% 30.06 in 10.0 mi Calm Calm - N/A   Clear
3:35 AM 53.2 °F 49.1 °F 86% 30.05 in 10.0 mi Calm Calm - N/A   Clear
3:55 AM 55.0 °F 49.1 °F 80% 30.06 in 10.0 mi Calm Calm - N/A   Clear
4:15 AM 54.5 °F 49.5 °F 83% 30.06 in 10.0 mi Calm Calm - N/A   Clear
4:35 AM 58.6 °F 49.1 °F 71% 30.05 in 10.0 mi SSW 4.6 mph - N/A   Clear
4:55 AM 60.1 °F 49.1 °F 67% 30.06 in 10.0 mi SSW 3.5 mph - N/A   Clear
5:15 AM 58.8 °F 49.5 °F 71% 30.06 in 10.0 mi Calm Calm - N/A   Clear
5:35 AM 59.5 °F 50.0 °F 71% 30.07 in 10.0 mi SSW 3.5 mph - N/A   Clear
5:55 AM 59.2 °F 50.2 °F 72% 30.07 in 10.0 mi SSW 3.5 mph - N/A   Clear
6:15 AM 59.0 °F 50.4 °F 73% 30.08 in 10.0 mi South 3.5 mph - N/A   Clear
6:35 AM 58.5 °F 50.9 °F 76% 30.09 in 10.0 mi SSW 3.5 mph - N/A   Clear
6:55 AM 58.5 °F 51.3 °F 77% 30.09 in 10.0 mi Calm Calm - N/A   Clear
7:15 AM 59.9 °F 52.9 °F 78% 30.10 in 10.0 mi Calm Calm - N/A   Clear
7:35 AM 61.9 °F 53.6 °F 74% 30.10 in 10.0 mi SW 3.5 mph - N/A   Clear
7:55 AM 63.9 °F 54.1 °F 71% 30.11 in 10.0 mi SW 4.6 mph - N/A   Clear
8:15 AM 65.8 °F 53.8 °F 65% 30.11 in 10.0 mi WSW 6.9 mph - N/A   Clear
8:55 AM 71.2 °F 50.9 °F 49% 30.11 in 10.0 mi WSW 8.1 mph - N/A   Clear
9:15 AM 73.0 °F 49.6 °F 44% 30.12 in 10.0 mi WSW 6.9 mph 16.1 mph N/A   Clear
9:35 AM 75.0 °F 49.8 °F 41% 30.12 in 10.0 mi WSW 8.1 mph - N/A   Clear
9:55 AM 76.1 °F 48.4 °F 38% 30.11 in 10.0 mi West 10.4 mph - N/A   Clear
10:15 AM 77.7 °F 48.9 °F 36% 30.11 in 10.0 mi West 5.8 mph - N/A   Clear
10:35 AM 79.5 °F 48.7 °F 34% 30.11 in 10.0 mi WSW 9.2 mph 16.1 mph N/A   Clear
10:55 AM 80.8 °F 50.0 °F 34% 30.12 in 10.0 mi WSW 5.8 mph - N/A   Clear
11:15 AM 81.5 °F 50.7 °F 34% 30.11 in 10.0 mi WSW 4.6 mph - N/A   Clear
11:35 AM 82.8 °F 51.6 °F 34% 30.11 in 10.0 mi SW 9.2 mph - N/A   Clear
11:55 AM 83.1 °F 50.9 °F 33% 30.11 in 10.0 mi SW 6.9 mph - N/A   Clear
12:15 PM 84.0 °F 50.9 °F 32% 30.10 in 10.0 mi SW 8.1 mph - N/A   Clear
12:35 PM 84.7 °F 50.0 °F 30% 30.09 in 10.0 mi WSW 9.2 mph - N/A   Clear
12:55 PM 85.1 °F 48.4 °F 28% 30.08 in 10.0 mi WSW 6.9 mph - N/A   Clear
1:15 PM 85.5 °F 49.6 °F 29% 30.07 in 10.0 mi SW 5.8 mph - N/A   Clear
1:35 PM 86.4 °F 49.5 °F 28% 30.07 in 10.0 mi SW 6.9 mph - N/A   Clear
1:55 PM 87.3 °F 48.6 °F 26% 30.06 in 10.0 mi SSW 10.4 mph - N/A   Clear
2:15 PM 87.3 °F 47.3 °F 25% 30.06 in 10.0 mi SW 10.4 mph - N/A   Clear
2:35 PM 87.6 °F 49.6 °F 27% 30.05 in 10.0 mi WSW 8.1 mph - N/A   Clear
2:55 PM 88.3 °F 49.1 °F 26% 30.04 in 10.0 mi South 5.8 mph - N/A   Clear
3:15 PM 88.0 °F 48.7 °F 26% 30.03 in 10.0 mi SW 8.1 mph - N/A   Clear
3:35 PM 88.0 °F 49.3 °F 26% 30.03 in 10.0 mi South 9.2 mph - N/A   Clear
3:55 PM 88.5 °F 48.2 °F 25% 30.02 in 10.0 mi South 8.1 mph - N/A   Clear
4:15 PM 88.3 °F 48.2 °F 25% 30.02 in 10.0 mi SSW 9.2 mph - N/A   Clear
4:35 PM 88.2 °F 46.4 °F 23% 30.01 in 10.0 mi SW 8.1 mph - N/A   Clear
4:55 PM 88.0 °F 48.4 °F 25% 30.01 in 10.0 mi SSW 9.2 mph - N/A   Clear
5:15 PM 87.8 °F 48.6 °F 26% 30.01 in 10.0 mi SW 8.1 mph - N/A   Clear
5:35 PM 87.8 °F 50.9 °F 28% 30.01 in 10.0 mi SW 8.1 mph - N/A   Clear
5:55 PM 86.9 °F 49.3 °F 27% 30.00 in 10.0 mi SW 6.9 mph - N/A   Clear
6:15 PM 86.2 °F 50.0 °F 29% 30.00 in 10.0 mi SW 6.9 mph - N/A   Clear
6:35 PM 85.3 °F 50.4 °F 30% 30.00 in 10.0 mi SW 5.8 mph - N/A   Clear
6:55 PM 83.7 °F 51.1 °F 32% 30.00 in 10.0 mi SSW 3.5 mph - N/A   Clear
7:15 PM 81.1 °F 52.7 °F 37% 30.00 in 10.0 mi SSW 3.5 mph - N/A   Clear
7:35 PM 75.2 °F 56.5 °F 52% 30.01 in 10.0 mi Calm Calm - N/A   Clear
7:55 PM 71.2 °F 56.5 °F 60% 30.00 in 10.0 mi Calm Calm - N/A   Clear
8:15 PM 68.2 °F 56.5 °F 66% 30.01 in 10.0 mi Calm Calm - N/A   Clear
8:35 PM 67.5 °F 55.2 °F 65% 30.01 in 10.0 mi Calm Calm - N/A   Clear
8:55 PM 66.2 °F 54.9 °F 67% 30.01 in 10.0 mi Calm Calm - N/A   Clear
9:15 PM 65.1 °F 55.0 °F 70% 30.01 in 10.0 mi Calm Calm - N/A   Clear
9:35 PM 65.3 °F 54.5 °F 68% 30.02 in 10.0 mi Calm Calm - N/A   Clear
9:55 PM 64.0 °F 53.6 °F 69% 30.02 in 10.0 mi Calm Calm - N/A   Clear
10:15 PM 63.5 °F 53.8 °F 71% 30.03 in 10.0 mi Calm Calm - N/A   Clear
10:35 PM 62.8 °F 54.0 °F 73% 30.03 in 10.0 mi Calm Calm - N/A   Clear
10:55 PM 64.4 °F 54.0 °F 69% 30.03 in 10.0 mi Calm Calm - N/A   Clear
11:15 PM 65.3 °F 54.1 °F 67% 30.03 in 10.0 mi South 4.6 mph - N/A   Clear
11:35 PM 69.1 °F 53.6 °F 58% 30.03 in 10.0 mi South 6.9 mph - N/A   Clear
11:55 PM 70.0 °F 53.4 °F 56% 30.04 in 10.0 mi SSW 8.1 mph - N/A   Clear